Provideniya Bay Airport
UHMD : now visible

Airfield :











YOU CAN JOIN US ON...

 
LOGIN :

Register | Disclaimer

   EN    FR    IT 

 









Legend :    VFR   Marginal VFR   IFR   Intensive IFR   Very Intensive IFR
Visi :
Ceiling :
>= 8 km
>= 3000ft
5 to 8 km
1000 to 3000 ft
1500m to 5 km
500 to 1000 ft
800 to 1500m
200 to 500 ft
< 800m
< 200 ft
Symbols :   Thunderstorms  Fog  Heavy snow  Heavy precipitations  Wind > 20 kt






- Airport Elevation : 72 ft
- IATA code : PVS


UHMD - Provideniya Bay

CURRENT METAR :
  • 100330Z 34006MPS CAVOK M10/M14 Q1021 RMK QFE765/1020

EXPIRED METARs :
  • 100300Z 35006MPS CAVOK M10/M14 Q1020 RMK QFE764/1019
  • 100230Z 36006MPS CAVOK M10/M14 Q1020 RMK QFE764/1019
  • 100200Z 35006MPS CAVOK M09/M13 Q1020 RMK QFE764/1019
  • 100130Z 35007MPS CAVOK M09/M13 Q1019 RMK QFE764/1019
  • 100100Z 35007MPS CAVOK M08/M13 Q1019 RMK QFE764/1019

TAF TAF UHMD
Valid from the 10 at 03:00 until the 10 at 09:00 UTC


100138Z 1003/1009 01007G12MPS 9999 SCT010 SCT020
TEMPO 1003/1009 DRSN



MET'MAP, your aeronautical weather chart ! - Copyright ORBIFLY December 2007 - Disclaimer

ORBIFLY MET'MAP TEAM :

Programming & Development : Alexandra Zaïnal
Concept & original design : Baudouin d'Aumeries
Assistance for programming : Marc-Olivier Méhu
Technical & hardware support : Manuel Goepfert

Contact : metmap@orbifly.com




SOURCES & CREDITS :

   NOAA       Earth
Advisory